createdAt,value
2023-02-25T00:00:36.852Z,11.10
2023-02-25T00:05:52.818Z,11.90
2023-02-25T00:11:02.718Z,11.00
2023-02-25T00:16:09.737Z,10.60
2023-02-25T00:21:15.601Z,10.90
2023-02-25T00:26:20.224Z,12.10
2023-02-25T00:31:27.730Z,11.30
2023-02-25T00:36:54.583Z,12.40
2023-02-25T00:41:58.087Z,10.90
2023-02-25T00:47:07.944Z,12.10
2023-02-25T00:52:33.122Z,13.70
2023-02-25T00:57:43.379Z,12.10
2023-02-25T01:02:53.089Z,9.50
2023-02-25T01:08:04.151Z,10.20
2023-02-25T01:13:18.816Z,8.40
2023-02-25T01:18:22.280Z,9.70
2023-02-25T01:23:25.993Z,9.50
2023-02-25T01:28:29.461Z,9.30
2023-02-25T01:33:32.783Z,8.30
2023-02-25T01:38:41.057Z,9.10
2023-02-25T01:44:44.487Z,9.10
2023-02-25T01:49:48.160Z,9.20
2023-02-25T01:55:17.836Z,9.40
2023-02-25T02:00:49.102Z,8.70
2023-02-25T02:06:19.910Z,7.30
2023-02-25T02:11:23.287Z,8.50
2023-02-25T02:22:37.056Z,8.60
2023-02-25T02:28:01.755Z,8.90
2023-02-25T02:33:39.464Z,8.30
2023-02-25T02:39:16.439Z,8.90
2023-02-25T02:44:52.893Z,9.00
2023-02-25T02:50:16.135Z,8.50
2023-02-25T02:55:44.756Z,8.90
2023-02-25T03:00:58.525Z,9.00
2023-02-25T03:06:06.794Z,9.20
2023-02-25T03:11:14.863Z,7.80
2023-02-25T03:16:43.339Z,9.00
2023-02-25T03:22:13.021Z,9.20
2023-02-25T03:27:38.468Z,8.90
2023-02-25T03:32:47.926Z,8.70
2023-02-25T03:37:58.749Z,9.00
2023-02-25T03:43:18.174Z,7.10
2023-02-25T03:48:23.208Z,8.30
2023-02-25T03:53:32.821Z,8.80
2023-02-25T03:59:08.217Z,8.80
2023-02-25T04:04:14.335Z,8.80
2023-02-25T04:09:18.408Z,8.90
2023-02-25T04:14:21.590Z,7.70
2023-02-25T04:19:28.854Z,8.30
2023-02-25T04:24:32.050Z,7.40
2023-02-25T04:29:35.415Z,9.20
2023-02-25T04:34:43.812Z,8.50
2023-02-25T04:39:47.274Z,9.10
2023-02-25T04:44:52.940Z,8.50
2023-02-25T04:49:56.702Z,9.00
2023-02-25T04:55:00.116Z,9.20
2023-02-25T05:00:10.513Z,9.30
2023-02-25T05:05:14.531Z,7.90
2023-02-25T05:10:18.065Z,9.00
2023-02-25T05:15:26.270Z,7.50
2023-02-25T05:20:29.935Z,8.20
2023-02-25T05:25:33.858Z,9.30
2023-02-25T05:30:39.169Z,9.70
2023-02-25T05:35:42.280Z,8.20
2023-02-25T05:40:45.515Z,9.70
2023-02-25T05:45:57.077Z,9.30
2023-02-25T05:51:06.158Z,8.00
2023-02-25T05:56:13.169Z,8.90
2023-02-25T06:01:23.867Z,9.50
2023-02-25T06:06:36.627Z,9.40
2023-02-25T06:11:42.844Z,10.60
2023-02-25T06:16:56.707Z,12.80
2023-02-25T06:22:03.226Z,10.30
2023-02-25T06:27:06.864Z,11.80
2023-02-25T06:32:12.163Z,12.10
2023-02-25T06:37:21.165Z,12.10
2023-02-25T06:42:27.312Z,11.10
2023-02-25T06:47:36.050Z,12.30
2023-02-25T06:52:41.868Z,13.30
2023-02-25T06:57:48.092Z,11.20
2023-02-25T07:02:51.631Z,12.80
2023-02-25T07:08:07.609Z,13.20
2023-02-25T07:13:22.964Z,12.00
2023-02-25T07:18:31.851Z,12.60
2023-02-25T07:23:41.517Z,10.90
2023-02-25T07:28:54.787Z,11.70
2023-02-25T07:34:05.148Z,11.80
2023-02-25T07:39:39.454Z,12.00
2023-02-25T07:44:42.881Z,13.30
2023-02-25T07:50:12.979Z,15.50
2023-02-25T07:55:26.561Z,12.60
2023-02-25T08:00:29.958Z,16.10
2023-02-25T08:05:37.961Z,19.60
2023-02-25T08:10:48.204Z,19.80
2023-02-25T08:16:16.244Z,16.30
2023-02-25T08:21:41.383Z,12.70
2023-02-25T08:26:47.160Z,25.40
2023-02-25T08:31:54.420Z,21.00
2023-02-25T08:37:37.296Z,16.90
2023-02-25T08:42:53.541Z,31.20
2023-02-25T08:48:09.892Z,21.00
2023-02-25T08:53:13.189Z,21.20
2023-02-25T08:58:22.259Z,16.30
2023-02-25T09:03:28.704Z,17.30
2023-02-25T09:08:41.135Z,19.90
2023-02-25T09:13:54.719Z,18.10
2023-02-25T09:19:00.615Z,28.40
2023-02-25T09:24:30.178Z,18.70
2023-02-25T09:29:38.435Z,13.70
2023-02-25T09:34:41.894Z,21.10
2023-02-25T09:39:48.616Z,16.60
2023-02-25T09:45:04.567Z,20.20
2023-02-25T09:50:22.676Z,20.40
2023-02-25T09:55:48.875Z,14.80
2023-02-25T10:01:27.938Z,12.60
2023-02-25T10:06:52.918Z,9.80
2023-02-25T10:12:38.364Z,7.00
2023-02-25T10:19:12.565Z,8.20
2023-02-25T10:24:31.294Z,8.00
2023-02-25T10:29:49.867Z,6.60
2023-02-25T10:35:17.864Z,6.20
2023-02-25T10:40:31.241Z,9.60
2023-02-25T10:45:40.228Z,7.90
2023-02-25T10:50:46.290Z,7.10
2023-02-25T10:55:53.453Z,3.80
2023-02-25T11:01:23.733Z,6.20
2023-02-25T11:06:35.534Z,7.50
2023-02-25T11:11:38.733Z,4.80
2023-02-25T11:16:45.362Z,3.60
2023-02-25T11:21:53.355Z,2.20
2023-02-25T11:27:00.322Z,2.00
2023-02-25T11:32:33.808Z,2.30
2023-02-25T11:37:45.446Z,2.40
2023-02-25T11:43:13.891Z,2.20
2023-02-25T11:48:23.706Z,2.00
2023-02-25T11:54:00.647Z,3.40
2023-02-25T11:59:50.948Z,2.10
2023-02-25T12:04:59.791Z,1.00
2023-02-25T12:10:47.381Z,2.70
2023-02-25T12:16:46.546Z,2.90
2023-02-25T12:22:42.328Z,1.80
2023-02-25T12:28:23.335Z,2.90
2023-02-25T12:34:02.284Z,2.00
2023-02-25T12:39:15.037Z,1.70
2023-02-25T12:44:54.926Z,2.60
2023-02-25T12:50:25.165Z,9.50
2023-02-25T12:56:16.588Z,1.70
2023-02-25T13:01:41.619Z,1.50
2023-02-25T13:07:31.379Z,1.50
2023-02-25T13:13:25.703Z,1.10
2023-02-25T13:19:05.504Z,5.60
2023-02-25T13:24:43.054Z,1.70
2023-02-25T13:30:14.173Z,2.10
2023-02-25T13:36:04.731Z,2.20
2023-02-25T13:41:26.381Z,2.00
2023-02-25T13:47:15.630Z,4.00
2023-02-25T13:52:31.826Z,39.90
2023-02-25T13:58:37.734Z,2.50
2023-02-25T14:04:49.959Z,1.90
2023-02-25T14:10:49.307Z,3.20
2023-02-25T14:16:27.018Z,1.60
2023-02-25T14:22:08.485Z,4.20
2023-02-25T14:27:43.814Z,3.10
2023-02-25T14:33:32.402Z,2.00
2023-02-25T14:39:18.197Z,2.30
2023-02-25T14:44:38.184Z,2.00
2023-02-25T14:49:58.300Z,2.00
2023-02-25T14:55:41.200Z,2.20
2023-02-25T15:01:02.185Z,2.30
2023-02-25T15:06:49.881Z,3.00
2023-02-25T15:11:58.572Z,2.10
2023-02-25T15:17:28.158Z,1.40
2023-02-25T15:22:33.044Z,1.30
2023-02-25T15:28:00.251Z,49.40
2023-02-25T15:33:03.818Z,18.70
2023-02-25T15:38:48.240Z,10.80
2023-02-25T15:43:52.124Z,59.90
2023-02-25T15:49:29.378Z,4.80
2023-02-25T15:54:32.507Z,3.00
2023-02-25T15:59:47.550Z,5.30
2023-02-25T16:04:50.885Z,2.70
2023-02-25T16:10:09.414Z,1.00
2023-02-25T16:15:28.926Z,15.10
2023-02-25T16:20:47.549Z,207.50
2023-02-25T16:26:15.703Z,88.70
2023-02-25T16:31:28.051Z,110.40
2023-02-25T16:36:44.407Z,37.50
2023-02-25T16:41:48.328Z,34.60
2023-02-25T16:46:54.554Z,149.00
2023-02-25T16:51:58.588Z,145.50
2023-02-25T16:57:06.968Z,199.90
2023-02-25T17:02:15.800Z,104.80
2023-02-25T17:07:30.297Z,145.50
2023-02-25T17:12:41.341Z,23.50
2023-02-25T17:17:46.968Z,12.10
2023-02-25T17:22:52.026Z,53.50
2023-02-25T17:27:59.431Z,81.80
2023-02-25T17:33:02.495Z,1.90
2023-02-25T17:38:29.022Z,15.10
2023-02-25T17:43:39.876Z,9.10
2023-02-25T17:48:53.495Z,6.70
2023-02-25T17:54:13.769Z,5.50
2023-02-25T17:59:16.728Z,11.50
2023-02-25T18:04:50.786Z,7.50
2023-02-25T18:10:05.552Z,3.70
2023-02-25T18:15:22.425Z,19.50
2023-02-25T18:20:33.825Z,3.40
2023-02-25T18:25:45.720Z,4.70
2023-02-25T18:30:52.680Z,4.70
2023-02-25T18:36:39.580Z,65.50
2023-02-25T18:42:08.357Z,38.20
2023-02-25T18:47:36.132Z,51.70
2023-02-25T18:53:05.151Z,71.80
2023-02-25T18:59:08.262Z,29.80
2023-02-25T19:04:23.108Z,3.30
2023-02-25T19:09:26.553Z,18.80
2023-02-25T19:14:29.655Z,3.40
2023-02-25T19:19:35.955Z,4.70
2023-02-25T19:24:50.393Z,7.40
2023-02-25T19:29:59.286Z,30.10
2023-02-25T19:35:24.313Z,67.40
2023-02-25T19:40:42.819Z,24.50
2023-02-25T19:45:47.357Z,28.90
2023-02-25T19:50:55.883Z,15.60
2023-02-25T19:56:07.524Z,16.80
2023-02-25T20:01:10.994Z,15.30
2023-02-25T20:06:24.059Z,25.70
2023-02-25T20:11:30.474Z,8.50
2023-02-25T20:16:35.026Z,5.80
2023-02-25T20:21:42.245Z,17.50
2023-02-25T20:26:51.081Z,9.10
2023-02-25T20:32:02.928Z,23.20
2023-02-25T20:37:30.743Z,29.20
2023-02-25T20:42:39.926Z,13.40
2023-02-25T20:47:55.684Z,15.10
2023-02-25T20:53:13.544Z,5.30
2023-02-25T20:58:29.669Z,8.20
2023-02-25T21:03:35.329Z,2.90
2023-02-25T21:09:01.168Z,8.30
2023-02-25T21:14:11.931Z,6.40
2023-02-25T21:19:16.041Z,7.70
2023-02-25T21:24:27.342Z,3.00
2023-02-25T21:29:56.505Z,5.60
2023-02-25T21:34:59.739Z,45.40
2023-02-25T21:40:06.321Z,15.60
2023-02-25T21:45:13.176Z,1.80
2023-02-25T21:50:19.504Z,5.60
2023-02-25T21:55:30.550Z,8.90
2023-02-25T22:01:20.477Z,3.20
2023-02-25T22:06:28.464Z,5.60
2023-02-25T22:11:35.564Z,1.80
2023-02-25T22:17:02.046Z,5.90
2023-02-25T22:22:18.518Z,2.50
2023-02-25T22:27:49.235Z,2.00
2023-02-25T22:33:13.713Z,2.40
2023-02-25T22:38:48.102Z,1.90
2023-02-25T22:44:22.585Z,1.50
2023-02-25T22:49:51.396Z,1.90
2023-02-25T22:55:02.279Z,2.50
2023-02-25T23:00:20.967Z,1.30
2023-02-25T23:05:27.183Z,2.00
2023-02-25T23:11:18.921Z,1.40
2023-02-25T23:16:45.720Z,1.50
2023-02-25T23:22:04.492Z,3.50
2023-02-25T23:27:35.444Z,1.00
2023-02-25T23:33:28.874Z,1.60
2023-02-25T23:38:50.117Z,1.20
2023-02-25T23:45:09.295Z,1.20
2023-02-25T23:50:37.449Z,1.50
2023-02-25T23:56:29.611Z,1.30
